Orbital elements of IRIDIUM 33 DEB
| Launched | 13 September 1997 |
| Flight ended | – |
| Launch site | Tyuratam Missile and Space Center, Kazakhstan (Also known as Baikonur Cosmodrome) |
| Owner | United States |
| NORAD ID | 36493 |
| Date fetched |
Epoch osculation |
Inc. [°] |
Ecc. | RA asc node [hr] |
Arg Peri. [°] |
Mean anom [°] |
Mean motion [rev/day] |
Abs. mag |
| Date fetched |
Epoch osculation |
Inc. [°] |
Ecc. | RA asc node [hr] |
Arg Peri. [°] |
Mean anom [°] |
Mean motion [rev/day] |
Abs. mag |
| 2026 May 04 17:57 | 2026 Apr 27 19:09:22 | 86.3540 | 0.00083 | 20.7425 | 237.5380 | 122.5030 | 14.67248 | – |
| 2026 May 03 17:57 | 2026 Apr 27 19:09:22 | 86.3540 | 0.00083 | 20.7425 | 237.5380 | 122.5030 | 14.67248 | – |
| 2026 May 02 17:57 | 2026 Apr 27 19:09:22 | 86.3540 | 0.00083 | 20.7425 | 237.5380 | 122.5030 | 14.67248 | – |
| 2026 May 01 17:56 | 2026 Apr 27 19:09:22 | 86.3540 | 0.00083 | 20.7425 | 237.5380 | 122.5030 | 14.67248 | – |
| 2026 Apr 30 17:56 | 2026 Apr 27 19:09:22 | 86.3540 | 0.00083 | 20.7425 | 237.5380 | 122.5030 | 14.67248 | – |
| 2026 Apr 29 17:57 | 2026 Apr 20 07:06:19 | 86.3538 | 0.00080 | 20.9656 | 271.4910 | 122.5030 | 14.67248 | – |
| 2026 Apr 28 17:56 | 2026 Apr 20 07:06:19 | 86.3538 | 0.00080 | 20.9656 | 271.4910 | 122.5030 | 14.67248 | – |
| 2026 Apr 27 17:58 | 2026 Apr 20 07:06:19 | 86.3538 | 0.00080 | 20.9656 | 271.4910 | 122.5030 | 14.67248 | – |
| 2026 Apr 26 17:58 | 2026 Apr 20 07:06:19 | 86.3538 | 0.00080 | 20.9656 | 271.4910 | 122.5030 | 14.67248 | – |
| 2026 Apr 25 17:58 | 2026 Apr 20 07:06:19 | 86.3538 | 0.00080 | 20.9656 | 271.4910 | 122.5030 | 14.67248 | – |
| 2026 Apr 24 17:59 | 2026 Apr 20 07:06:19 | 86.3538 | 0.00080 | 20.9656 | 271.4910 | 122.5030 | 14.67248 | – |
| 2026 Apr 23 17:57 | 2026 Apr 17 20:10:41 | 86.3528 | 0.00085 | 21.0386 | 282.4940 | 122.5030 | 14.67248 | – |
| 2026 Apr 22 17:57 | 2026 Apr 17 20:10:41 | 86.3528 | 0.00085 | 21.0386 | 282.4940 | 122.5030 | 14.67248 | – |
| 2026 Apr 21 17:57 | 2026 Apr 17 20:10:41 | 86.3528 | 0.00085 | 21.0386 | 282.4940 | 122.5030 | 14.67248 | – |
| 2026 Apr 20 17:57 | 2026 Apr 17 20:10:41 | 86.3528 | 0.00085 | 21.0386 | 282.4940 | 122.5030 | 14.67248 | – |
| 2026 Apr 19 17:58 | 2026 Apr 17 20:10:41 | 86.3528 | 0.00085 | 21.0386 | 282.4940 | 122.5030 | 14.67248 | – |
| 2026 Apr 18 17:56 | 2026 Apr 12 07:35:22 | 86.3555 | 0.00086 | 21.2029 | 306.5064 | 122.5030 | 14.67248 | – |
| 2026 Apr 16 17:57 | 2026 Apr 12 07:35:22 | 86.3555 | 0.00086 | 21.2029 | 306.5064 | 122.5030 | 14.67248 | – |
| 2026 Apr 14 17:57 | 2026 Apr 12 07:35:22 | 86.3555 | 0.00086 | 21.2029 | 306.5064 | 122.5030 | 14.67248 | – |
| 2026 Apr 13 17:57 | 2026 Apr 12 07:35:22 | 86.3555 | 0.00086 | 21.2029 | 306.5064 | 122.5030 | 14.67248 | – |
| 2026 Apr 12 17:57 | 2026 Apr 05 08:37:17 | 86.3558 | 0.00096 | 21.4096 | 333.6927 | 122.5030 | 14.67248 | – |
| 2026 Apr 11 17:57 | 2026 Apr 05 08:37:17 | 86.3558 | 0.00096 | 21.4096 | 333.6927 | 122.5030 | 14.67248 | – |
| 2026 Apr 10 17:58 | 2026 Apr 05 08:37:17 | 86.3558 | 0.00096 | 21.4096 | 333.6927 | 122.5030 | 14.67248 | – |
| 2026 Apr 09 18:01 | 2026 Apr 05 08:37:17 | 86.3558 | 0.00096 | 21.4096 | 333.6927 | 122.5030 | 14.67248 | – |
| 2026 Apr 08 17:57 | 2026 Apr 05 08:37:17 | 86.3558 | 0.00096 | 21.4096 | 333.6927 | 122.5030 | 14.67248 | – |
| 2026 Apr 07 17:57 | 2026 Mar 31 09:07:05 | 86.3573 | 0.00104 | 21.5576 | 351.4578 | 122.5030 | 14.67248 | – |